sensor_id;sensor_type;location;lat;lon;timestamp;temperature;humidity
3408;DHT22;1717;50.240;8.406;2023-02-02T00:01:16;6.60;99.90
3408;DHT22;1717;50.240;8.406;2023-02-02T00:03:43;6.60;99.90
3408;DHT22;1717;50.240;8.406;2023-02-02T00:06:10;6.60;99.90
3408;DHT22;1717;50.240;8.406;2023-02-02T00:08:37;6.60;99.90
3408;DHT22;1717;50.240;8.406;2023-02-02T00:11:05;6.60;99.90
3408;DHT22;1717;50.240;8.406;2023-02-02T00:13:32;6.60;99.90
3408;DHT22;1717;50.240;8.406;2023-02-02T00:16:33;6.60;99.90
3408;DHT22;1717;50.240;8.406;2023-02-02T00:19:02;6.60;99.90
3408;DHT22;1717;50.240;8.406;2023-02-02T00:21:29;6.60;99.90
3408;DHT22;1717;50.240;8.406;2023-02-02T00:23:56;6.60;99.90
3408;DHT22;1717;50.240;8.406;2023-02-02T00:26:24;6.60;99.90
3408;DHT22;1717;50.240;8.406;2023-02-02T00:28:51;6.60;99.90
3408;DHT22;1717;50.240;8.406;2023-02-02T00:31:19;6.70;99.90
3408;DHT22;1717;50.240;8.406;2023-02-02T00:33:46;6.70;99.90
3408;DHT22;1717;50.240;8.406;2023-02-02T00:36:13;6.70;99.90
3408;DHT22;1717;50.240;8.406;2023-02-02T00:38:40;6.60;99.90
3408;DHT22;1717;50.240;8.406;2023-02-02T00:41:07;6.60;99.90
3408;DHT22;1717;50.240;8.406;2023-02-02T00:43:34;6.60;99.90
3408;DHT22;1717;50.240;8.406;2023-02-02T00:46:02;6.80;99.90
3408;DHT22;1717;50.240;8.406;2023-02-02T00:48:29;6.60;99.90
3408;DHT22;1717;50.240;8.406;2023-02-02T00:50:56;6.60;99.90
3408;DHT22;1717;50.240;8.406;2023-02-02T00:53:23;6.60;99.90
3408;DHT22;1717;50.240;8.406;2023-02-02T00:55:49;6.60;99.90
3408;DHT22;1717;50.240;8.406;2023-02-02T00:58:16;6.60;99.90
3408;DHT22;1717;50.240;8.406;2023-02-02T01:00:44;6.60;99.90
3408;DHT22;1717;50.240;8.406;2023-02-02T01:03:11;6.60;99.90
3408;DHT22;1717;50.240;8.406;2023-02-02T01:05:39;6.70;99.90
3408;DHT22;1717;50.240;8.406;2023-02-02T01:08:06;6.70;99.90
3408;DHT22;1717;50.240;8.406;2023-02-02T01:10:33;6.70;99.90
3408;DHT22;1717;50.240;8.406;2023-02-02T01:13:02;6.70;99.90
3408;DHT22;1717;50.240;8.406;2023-02-02T01:15:29;6.70;99.90
3408;DHT22;1717;50.240;8.406;2023-02-02T01:17:56;6.60;99.90
3408;DHT22;1717;50.240;8.406;2023-02-02T01:20:23;6.70;99.90
3408;DHT22;1717;50.240;8.406;2023-02-02T01:22:51;6.70;99.90
3408;DHT22;1717;50.240;8.406;2023-02-02T01:25:18;6.70;99.90
3408;DHT22;1717;50.240;8.406;2023-02-02T01:27:45;6.70;99.90
3408;DHT22;1717;50.240;8.406;2023-02-02T01:30:12;6.80;99.90
3408;DHT22;1717;50.240;8.406;2023-02-02T01:32:39;6.70;99.90
3408;DHT22;1717;50.240;8.406;2023-02-02T01:35:06;6.70;99.90
3408;DHT22;1717;50.240;8.406;2023-02-02T01:37:34;6.70;99.90
3408;DHT22;1717;50.240;8.406;2023-02-02T01:40:03;6.70;99.90
3408;DHT22;1717;50.240;8.406;2023-02-02T01:42:30;6.70;99.90
3408;DHT22;1717;50.240;8.406;2023-02-02T01:45:17;6.70;99.90
3408;DHT22;1717;50.240;8.406;2023-02-02T01:47:48;6.60;99.90
3408;DHT22;1717;50.240;8.406;2023-02-02T01:50:17;6.70;99.90
3408;DHT22;1717;50.240;8.406;2023-02-02T01:52:47;6.70;99.90
3408;DHT22;1717;50.240;8.406;2023-02-02T01:55:19;6.70;99.90
3408;DHT22;1717;50.240;8.406;2023-02-02T01:57:51;6.60;99.90
3408;DHT22;1717;50.240;8.406;2023-02-02T02:00:20;6.70;99.90
3408;DHT22;1717;50.240;8.406;2023-02-02T02:02:52;6.70;99.90
3408;DHT22;1717;50.240;8.406;2023-02-02T02:05:24;6.70;99.90
3408;DHT22;1717;50.240;8.406;2023-02-02T02:07:53;6.70;99.90
3408;DHT22;1717;50.240;8.406;2023-02-02T02:10:23;6.70;99.90
3408;DHT22;1717;50.240;8.406;2023-02-02T02:12:49;6.70;99.90
3408;DHT22;1717;50.240;8.406;2023-02-02T02:15:17;6.70;99.90
3408;DHT22;1717;50.240;8.406;2023-02-02T02:18:11;6.50;99.90
3408;DHT22;1717;50.240;8.406;2023-02-02T02:30:40;6.70;99.90
3408;DHT22;1717;50.240;8.406;2023-02-02T02:33:14;6.70;99.90
3408;DHT22;1717;50.240;8.406;2023-02-02T02:35:52;6.70;99.90
3408;DHT22;1717;50.240;8.406;2023-02-02T02:38:28;6.90;99.90
3408;DHT22;1717;50.240;8.406;2023-02-02T02:40:59;6.70;99.90
3408;DHT22;1717;50.240;8.406;2023-02-02T02:43:33;6.70;99.90
3408;DHT22;1717;50.240;8.406;2023-02-02T02:46:01;6.80;99.90
3408;DHT22;1717;50.240;8.406;2023-02-02T02:48:29;6.80;99.90
3408;DHT22;1717;50.240;8.406;2023-02-02T02:51:05;6.80;99.90
3408;DHT22;1717;50.240;8.406;2023-02-02T02:53:32;6.80;99.90
3408;DHT22;1717;50.240;8.406;2023-02-02T02:56:06;6.80;99.90
3408;DHT22;1717;50.240;8.406;2023-02-02T02:58:43;6.80;99.90
3408;DHT22;1717;50.240;8.406;2023-02-02T03:01:17;6.80;99.90
3408;DHT22;1717;50.240;8.406;2023-02-02T03:03:58;6.80;99.90
3408;DHT22;1717;50.240;8.406;2023-02-02T03:06:34;6.80;99.90
3408;DHT22;1717;50.240;8.406;2023-02-02T03:09:05;6.80;99.90
3408;DHT22;1717;50.240;8.406;2023-02-02T03:11:34;6.80;99.90
3408;DHT22;1717;50.240;8.406;2023-02-02T03:14:01;6.80;99.90
3408;DHT22;1717;50.240;8.406;2023-02-02T03:16:29;6.80;99.90
3408;DHT22;1717;50.240;8.406;2023-02-02T03:18:57;6.70;99.90
3408;DHT22;1717;50.240;8.406;2023-02-02T03:21:24;6.70;99.90
3408;DHT22;1717;50.240;8.406;2023-02-02T03:23:51;6.80;99.90
3408;DHT22;1717;50.240;8.406;2023-02-02T03:26:17;6.80;99.90
3408;DHT22;1717;50.240;8.406;2023-02-02T03:28:44;6.80;99.90
3408;DHT22;1717;50.240;8.406;2023-02-02T03:31:11;6.70;99.90
3408;DHT22;1717;50.240;8.406;2023-02-02T03:33:38;6.70;99.90
3408;DHT22;1717;50.240;8.406;2023-02-02T03:36:07;6.80;99.90
3408;DHT22;1717;50.240;8.406;2023-02-02T03:38:34;6.80;99.90
3408;DHT22;1717;50.240;8.406;2023-02-02T03:41:01;6.80;99.90
3408;DHT22;1717;50.240;8.406;2023-02-02T03:43:28;6.80;99.90
3408;DHT22;1717;50.240;8.406;2023-02-02T03:45:56;6.80;99.90
3408;DHT22;1717;50.240;8.406;2023-02-02T03:48:23;6.80;99.90
3408;DHT22;1717;50.240;8.406;2023-02-02T03:50:50;6.80;99.90
3408;DHT22;1717;50.240;8.406;2023-02-02T03:53:18;6.80;99.90
3408;DHT22;1717;50.240;8.406;2023-02-02T03:55:45;6.80;99.90
3408;DHT22;1717;50.240;8.406;2023-02-02T03:58:12;6.80;99.90
3408;DHT22;1717;50.240;8.406;2023-02-02T04:00:39;6.80;99.90
3408;DHT22;1717;50.240;8.406;2023-02-02T04:03:05;6.80;99.90
3408;DHT22;1717;50.240;8.406;2023-02-02T04:05:32;6.80;99.90
3408;DHT22;1717;50.240;8.406;2023-02-02T04:07:59;6.90;99.90
3408;DHT22;1717;50.240;8.406;2023-02-02T04:10:28;6.70;99.90
3408;DHT22;1717;50.240;8.406;2023-02-02T04:12:54;6.70;99.90
3408;DHT22;1717;50.240;8.406;2023-02-02T04:15:21;6.70;99.90
3408;DHT22;1717;50.240;8.406;2023-02-02T04:17:48;6.70;99.90
3408;DHT22;1717;50.240;8.406;2023-02-02T04:20:15;6.90;99.90
3408;DHT22;1717;50.240;8.406;2023-02-02T04:22:42;6.70;99.90
3408;DHT22;1717;50.240;8.406;2023-02-02T04:25:09;6.70;99.90
3408;DHT22;1717;50.240;8.406;2023-02-02T04:27:37;6.70;99.90
3408;DHT22;1717;50.240;8.406;2023-02-02T04:30:05;6.70;99.90
3408;DHT22;1717;50.240;8.406;2023-02-02T04:32:33;6.70;99.90
3408;DHT22;1717;50.240;8.406;2023-02-02T04:35:00;6.70;99.90
3408;DHT22;1717;50.240;8.406;2023-02-02T04:37:29;6.70;99.90
3408;DHT22;1717;50.240;8.406;2023-02-02T04:39:57;6.80;99.90
3408;DHT22;1717;50.240;8.406;2023-02-02T04:42:23;6.70;99.90
3408;DHT22;1717;50.240;8.406;2023-02-02T04:44:52;6.70;99.90
3408;DHT22;1717;50.240;8.406;2023-02-02T04:47:19;6.70;99.90
3408;DHT22;1717;50.240;8.406;2023-02-02T04:49:45;6.70;99.90
3408;DHT22;1717;50.240;8.406;2023-02-02T04:52:12;6.70;99.90
3408;DHT22;1717;50.240;8.406;2023-02-02T04:54:39;6.70;99.90
3408;DHT22;1717;50.240;8.406;2023-02-02T04:57:06;6.70;99.90
3408;DHT22;1717;50.240;8.406;2023-02-02T04:59:33;6.90;99.90
3408;DHT22;1717;50.240;8.406;2023-02-02T05:02:01;6.70;99.90
3408;DHT22;1717;50.240;8.406;2023-02-02T05:04:28;6.70;99.90
3408;DHT22;1717;50.240;8.406;2023-02-02T05:06:55;6.70;99.90
3408;DHT22;1717;50.240;8.406;2023-02-02T05:09:22;6.70;99.90
3408;DHT22;1717;50.240;8.406;2023-02-02T05:11:48;6.70;99.90
3408;DHT22;1717;50.240;8.406;2023-02-02T05:14:15;6.70;99.90
3408;DHT22;1717;50.240;8.406;2023-02-02T05:16:44;6.80;99.90
3408;DHT22;1717;50.240;8.406;2023-02-02T05:19:12;6.70;99.90
3408;DHT22;1717;50.240;8.406;2023-02-02T05:21:42;6.70;99.90
3408;DHT22;1717;50.240;8.406;2023-02-02T05:24:10;6.70;99.90
3408;DHT22;1717;50.240;8.406;2023-02-02T05:26:37;6.60;99.90
3408;DHT22;1717;50.240;8.406;2023-02-02T05:29:04;6.90;99.90
3408;DHT22;1717;50.240;8.406;2023-02-02T05:31:31;6.60;99.90
3408;DHT22;1717;50.240;8.406;2023-02-02T05:33:59;6.60;99.90
3408;DHT22;1717;50.240;8.406;2023-02-02T05:36:27;6.60;99.90
3408;DHT22;1717;50.240;8.406;2023-02-02T05:38:54;6.60;99.90
3408;DHT22;1717;50.240;8.406;2023-02-02T05:41:21;6.60;99.90
3408;DHT22;1717;50.240;8.406;2023-02-02T05:43:47;6.50;99.90
3408;DHT22;1717;50.240;8.406;2023-02-02T05:46:14;6.50;99.90
3408;DHT22;1717;50.240;8.406;2023-02-02T05:48:41;6.50;99.90
3408;DHT22;1717;50.240;8.406;2023-02-02T05:51:11;6.50;99.90
3408;DHT22;1717;50.240;8.406;2023-02-02T05:53:42;6.50;99.90
3408;DHT22;1717;50.240;8.406;2023-02-02T05:56:10;6.60;99.90
3408;DHT22;1717;50.240;8.406;2023-02-02T05:58:37;6.50;99.90
3408;DHT22;1717;50.240;8.406;2023-02-02T06:01:04;6.60;99.90
3408;DHT22;1717;50.240;8.406;2023-02-02T06:03:30;6.50;99.90
3408;DHT22;1717;50.240;8.406;2023-02-02T06:05:57;6.50;99.90
3408;DHT22;1717;50.240;8.406;2023-02-02T06:08:24;6.50;99.90
3408;DHT22;1717;50.240;8.406;2023-02-02T06:10:52;6.60;99.90
3408;DHT22;1717;50.240;8.406;2023-02-02T06:13:19;6.60;99.90
3408;DHT22;1717;50.240;8.406;2023-02-02T06:15:46;6.50;99.90
3408;DHT22;1717;50.240;8.406;2023-02-02T06:18:13;6.50;99.90
3408;DHT22;1717;50.240;8.406;2023-02-02T06:20:40;6.60;99.90
3408;DHT22;1717;50.240;8.406;2023-02-02T06:23:06;6.50;99.90
3408;DHT22;1717;50.240;8.406;2023-02-02T06:25:33;6.50;99.90
3408;DHT22;1717;50.240;8.406;2023-02-02T06:28:01;6.60;99.90
3408;DHT22;1717;50.240;8.406;2023-02-02T06:30:28;6.60;99.90
3408;DHT22;1717;50.240;8.406;2023-02-02T06:32:58;6.60;99.90
3408;DHT22;1717;50.240;8.406;2023-02-02T06:35:24;6.60;99.90
3408;DHT22;1717;50.240;8.406;2023-02-02T06:37:51;6.60;99.90
3408;DHT22;1717;50.240;8.406;2023-02-02T06:40:18;6.60;99.90
3408;DHT22;1717;50.240;8.406;2023-02-02T06:42:45;6.60;99.90
3408;DHT22;1717;50.240;8.406;2023-02-02T06:45:13;6.60;99.90
3408;DHT22;1717;50.240;8.406;2023-02-02T06:47:40;6.60;99.90
3408;DHT22;1717;50.240;8.406;2023-02-02T06:50:07;6.50;99.90
3408;DHT22;1717;50.240;8.406;2023-02-02T06:52:34;6.60;99.90
3408;DHT22;1717;50.240;8.406;2023-02-02T06:55:01;6.60;99.90
3408;DHT22;1717;50.240;8.406;2023-02-02T06:57:27;6.60;99.90
3408;DHT22;1717;50.240;8.406;2023-02-02T06:59:54;6.60;99.90
3408;DHT22;1717;50.240;8.406;2023-02-02T07:02:22;6.60;99.90
3408;DHT22;1717;50.240;8.406;2023-02-02T07:04:50;6.60;99.90
3408;DHT22;1717;50.240;8.406;2023-02-02T07:07:17;6.60;99.90
3408;DHT22;1717;50.240;8.406;2023-02-02T07:09:43;6.60;99.90
3408;DHT22;1717;50.240;8.406;2023-02-02T07:12:10;6.50;99.90
3408;DHT22;1717;50.240;8.406;2023-02-02T07:14:37;6.60;99.90
3408;DHT22;1717;50.240;8.406;2023-02-02T07:17:04;6.60;99.90
3408;DHT22;1717;50.240;8.406;2023-02-02T07:19:32;6.60;99.90
3408;DHT22;1717;50.240;8.406;2023-02-02T07:21:59;6.60;99.90
3408;DHT22;1717;50.240;8.406;2023-02-02T07:24:25;6.70;99.90
3408;DHT22;1717;50.240;8.406;2023-02-02T07:26:53;6.60;99.90
3408;DHT22;1717;50.240;8.406;2023-02-02T07:29:20;6.60;99.90
3408;DHT22;1717;50.240;8.406;2023-02-02T07:31:47;6.60;99.90
3408;DHT22;1717;50.240;8.406;2023-02-02T07:34:13;6.50;99.90
3408;DHT22;1717;50.240;8.406;2023-02-02T07:36:41;6.50;99.90
3408;DHT22;1717;50.240;8.406;2023-02-02T07:39:08;6.70;99.90
3408;DHT22;1717;50.240;8.406;2023-02-02T07:41:36;6.50;99.90
3408;DHT22;1717;50.240;8.406;2023-02-02T07:44:04;6.50;99.90
3408;DHT22;1717;50.240;8.406;2023-02-02T07:46:31;6.50;99.90
3408;DHT22;1717;50.240;8.406;2023-02-02T07:48:58;6.50;99.90
3408;DHT22;1717;50.240;8.406;2023-02-02T07:51:25;6.40;99.90
3408;DHT22;1717;50.240;8.406;2023-02-02T07:53:54;6.50;99.90
3408;DHT22;1717;50.240;8.406;2023-02-02T07:56:24;6.50;99.90
3408;DHT22;1717;50.240;8.406;2023-02-02T07:58:53;6.50;99.90
3408;DHT22;1717;50.240;8.406;2023-02-02T08:01:20;6.50;99.90
3408;DHT22;1717;50.240;8.406;2023-02-02T08:03:48;6.50;99.90
3408;DHT22;1717;50.240;8.406;2023-02-02T08:06:17;6.50;99.90
3408;DHT22;1717;50.240;8.406;2023-02-02T08:08:45;6.50;99.90
3408;DHT22;1717;50.240;8.406;2023-02-02T08:11:15;6.50;99.90
3408;DHT22;1717;50.240;8.406;2023-02-02T08:13:43;6.50;99.90
3408;DHT22;1717;50.240;8.406;2023-02-02T08:16:11;6.50;99.90
3408;DHT22;1717;50.240;8.406;2023-02-02T08:18:38;6.50;99.90
3408;DHT22;1717;50.240;8.406;2023-02-02T08:21:06;6.50;99.90
3408;DHT22;1717;50.240;8.406;2023-02-02T08:23:34;6.50;99.90
3408;DHT22;1717;50.240;8.406;2023-02-02T08:26:07;6.50;99.90
3408;DHT22;1717;50.240;8.406;2023-02-02T08:28:36;6.60;99.90
3408;DHT22;1717;50.240;8.406;2023-02-02T08:31:04;6.60;99.90
3408;DHT22;1717;50.240;8.406;2023-02-02T08:33:31;6.60;99.90
3408;DHT22;1717;50.240;8.406;2023-02-02T08:35:58;6.60;99.90
3408;DHT22;1717;50.240;8.406;2023-02-02T08:38:25;6.60;99.90
3408;DHT22;1717;50.240;8.406;2023-02-02T08:40:52;6.60;99.90
3408;DHT22;1717;50.240;8.406;2023-02-02T08:43:19;6.60;99.90
3408;DHT22;1717;50.240;8.406;2023-02-02T08:45:49;6.60;99.90
3408;DHT22;1717;50.240;8.406;2023-02-02T08:48:17;6.60;99.90
3408;DHT22;1717;50.240;8.406;2023-02-02T08:50:51;6.60;99.90
3408;DHT22;1717;50.240;8.406;2023-02-02T08:53:21;6.60;99.90
3408;DHT22;1717;50.240;8.406;2023-02-02T08:55:48;6.60;99.90
3408;DHT22;1717;50.240;8.406;2023-02-02T08:58:23;6.60;99.90
3408;DHT22;1717;50.240;8.406;2023-02-02T09:00:51;6.60;99.90
3408;DHT22;1717;50.240;8.406;2023-02-02T09:03:18;6.40;99.90
3408;DHT22;1717;50.240;8.406;2023-02-02T09:05:45;6.70;99.90
3408;DHT22;1717;50.240;8.406;2023-02-02T09:08:12;6.60;99.90
3408;DHT22;1717;50.240;8.406;2023-02-02T09:10:39;6.60;99.90
3408;DHT22;1717;50.240;8.406;2023-02-02T09:13:06;6.60;99.90
3408;DHT22;1717;50.240;8.406;2023-02-02T09:15:33;6.60;99.90
3408;DHT22;1717;50.240;8.406;2023-02-02T09:18:01;6.60;99.90
3408;DHT22;1717;50.240;8.406;2023-02-02T09:20:29;6.60;99.90
3408;DHT22;1717;50.240;8.406;2023-02-02T09:22:56;6.70;99.90
3408;DHT22;1717;50.240;8.406;2023-02-02T09:25:23;6.70;99.90
3408;DHT22;1717;50.240;8.406;2023-02-02T09:27:51;6.70;99.90
3408;DHT22;1717;50.240;8.406;2023-02-02T09:30:18;6.70;99.90
3408;DHT22;1717;50.240;8.406;2023-02-02T09:32:48;6.70;99.90
3408;DHT22;1717;50.240;8.406;2023-02-02T09:35:17;6.90;99.90
3408;DHT22;1717;50.240;8.406;2023-02-02T09:37:44;6.70;99.90
3408;DHT22;1717;50.240;8.406;2023-02-02T09:40:14;6.70;99.90
3408;DHT22;1717;50.240;8.406;2023-02-02T09:42:52;6.70;99.90
3408;DHT22;1717;50.240;8.406;2023-02-02T09:45:26;6.70;99.90
3408;DHT22;1717;50.240;8.406;2023-02-02T09:48:00;6.70;99.90
3408;DHT22;1717;50.240;8.406;2023-02-02T09:50:44;6.70;99.90
3408;DHT22;1717;50.240;8.406;2023-02-02T09:53:25;6.80;99.90
3408;DHT22;1717;50.240;8.406;2023-02-02T09:55:54;6.80;99.90
3408;DHT22;1717;50.240;8.406;2023-02-02T09:58:25;6.70;99.90
3408;DHT22;1717;50.240;8.406;2023-02-02T10:00:58;6.70;99.90
3408;DHT22;1717;50.240;8.406;2023-02-02T10:03:32;6.70;99.90
3408;DHT22;1717;50.240;8.406;2023-02-02T10:06:10;6.80;99.90
3408;DHT22;1717;50.240;8.406;2023-02-02T10:08:43;6.80;99.90
3408;DHT22;1717;50.240;8.406;2023-02-02T10:11:25;6.80;99.90
3408;DHT22;1717;50.240;8.406;2023-02-02T10:13:56;6.80;99.90
3408;DHT22;1717;50.240;8.406;2023-02-02T10:16:25;6.80;99.90
3408;DHT22;1717;50.240;8.406;2023-02-02T10:18:55;6.90;99.90
3408;DHT22;1717;50.240;8.406;2023-02-02T10:21:33;6.80;99.90
3408;DHT22;1717;50.240;8.406;2023-02-02T10:24:02;6.90;99.90
3408;DHT22;1717;50.240;8.406;2023-02-02T10:26:36;6.90;99.90
3408;DHT22;1717;50.240;8.406;2023-02-02T10:29:14;6.80;99.90
3408;DHT22;1717;50.240;8.406;2023-02-02T10:31:43;6.80;99.90
3408;DHT22;1717;50.240;8.406;2023-02-02T10:34:16;6.80;99.90
3408;DHT22;1717;50.240;8.406;2023-02-02T10:36:59;6.80;99.90
3408;DHT22;1717;50.240;8.406;2023-02-02T10:39:39;6.80;99.90
3408;DHT22;1717;50.240;8.406;2023-02-02T10:42:22;6.80;99.90
3408;DHT22;1717;50.240;8.406;2023-02-02T10:44:57;6.80;99.90
3408;DHT22;1717;50.240;8.406;2023-02-02T10:47:27;6.80;99.90
3408;DHT22;1717;50.240;8.406;2023-02-02T10:50:01;6.90;99.90
3408;DHT22;1717;50.240;8.406;2023-02-02T10:52:35;6.90;99.90
3408;DHT22;1717;50.240;8.406;2023-02-02T10:55:06;6.90;99.90
3408;DHT22;1717;50.240;8.406;2023-02-02T10:57:52;7.00;99.90
3408;DHT22;1717;50.240;8.406;2023-02-02T11:00:27;7.00;99.90
3408;DHT22;1717;50.240;8.406;2023-02-02T11:02:56;7.10;99.90
3408;DHT22;1717;50.240;8.406;2023-02-02T11:05:25;7.10;99.90
3408;DHT22;1717;50.240;8.406;2023-02-02T11:08:16;7.10;99.90
3408;DHT22;1717;50.240;8.406;2023-02-02T11:10:45;7.20;99.90
3408;DHT22;1717;50.240;8.406;2023-02-02T11:13:24;7.10;99.90
3408;DHT22;1717;50.240;8.406;2023-02-02T11:16:17;7.10;99.90
3408;DHT22;1717;50.240;8.406;2023-02-02T11:18:45;7.20;99.90
3408;DHT22;1717;50.240;8.406;2023-02-02T11:21:17;7.10;99.90
3408;DHT22;1717;50.240;8.406;2023-02-02T11:23:52;7.10;99.90
3408;DHT22;1717;50.240;8.406;2023-02-02T11:26:21;7.20;99.90
3408;DHT22;1717;50.240;8.406;2023-02-02T11:28:48;7.20;99.90
3408;DHT22;1717;50.240;8.406;2023-02-02T11:31:30;7.20;99.90
3408;DHT22;1717;50.240;8.406;2023-02-02T11:34:08;7.20;99.90
3408;DHT22;1717;50.240;8.406;2023-02-02T11:36:35;7.20;99.90
3408;DHT22;1717;50.240;8.406;2023-02-02T11:39:18;7.20;99.90
3408;DHT22;1717;50.240;8.406;2023-02-02T11:41:45;7.20;99.90
3408;DHT22;1717;50.240;8.406;2023-02-02T11:44:24;7.20;99.90
3408;DHT22;1717;50.240;8.406;2023-02-02T11:46:52;7.20;99.90
3408;DHT22;1717;50.240;8.406;2023-02-02T11:49:22;7.20;99.90
3408;DHT22;1717;50.240;8.406;2023-02-02T11:51:56;7.20;99.90
3408;DHT22;1717;50.240;8.406;2023-02-02T11:54:27;7.20;99.90
3408;DHT22;1717;50.240;8.406;2023-02-02T11:56:57;7.20;99.90
3408;DHT22;1717;50.240;8.406;2023-02-02T11:59:34;7.30;99.90
3408;DHT22;1717;50.240;8.406;2023-02-02T12:02:25;7.30;99.90
3408;DHT22;1717;50.240;8.406;2023-02-02T12:04:53;7.20;99.90
3408;DHT22;1717;50.240;8.406;2023-02-02T12:07:26;7.20;99.90
3408;DHT22;1717;50.240;8.406;2023-02-02T12:09:58;7.30;99.90
3408;DHT22;1717;50.240;8.406;2023-02-02T12:12:35;7.30;99.90
3408;DHT22;1717;50.240;8.406;2023-02-02T12:15:14;7.30;99.90
3408;DHT22;1717;50.240;8.406;2023-02-02T12:17:44;7.30;99.90
3408;DHT22;1717;50.240;8.406;2023-02-02T12:20:20;7.40;99.90
3408;DHT22;1717;50.240;8.406;2023-02-02T12:22:57;7.40;99.90
3408;DHT22;1717;50.240;8.406;2023-02-02T12:25:53;7.40;99.90
3408;DHT22;1717;50.240;8.406;2023-02-02T12:28:41;7.50;99.90
3408;DHT22;1717;50.240;8.406;2023-02-02T12:31:17;7.40;99.90
3408;DHT22;1717;50.240;8.406;2023-02-02T12:33:53;7.40;99.90
3408;DHT22;1717;50.240;8.406;2023-02-02T12:36:42;7.40;99.90
3408;DHT22;1717;50.240;8.406;2023-02-02T12:39:32;7.40;99.90
3408;DHT22;1717;50.240;8.406;2023-02-02T12:45:13;7.40;99.90
3408;DHT22;1717;50.240;8.406;2023-02-02T12:47:48;7.40;99.90
3408;DHT22;1717;50.240;8.406;2023-02-02T12:50:23;7.40;99.90
3408;DHT22;1717;50.240;8.406;2023-02-02T12:53:11;7.40;99.90
3408;DHT22;1717;50.240;8.406;2023-02-02T12:55:43;7.40;99.90
3408;DHT22;1717;50.240;8.406;2023-02-02T12:58:23;7.40;99.90
3408;DHT22;1717;50.240;8.406;2023-02-02T13:01:09;7.40;99.90
3408;DHT22;1717;50.240;8.406;2023-02-02T13:03:55;7.40;99.90
3408;DHT22;1717;50.240;8.406;2023-02-02T13:06:42;7.30;99.90
3408;DHT22;1717;50.240;8.406;2023-02-02T13:09:20;7.40;99.90
3408;DHT22;1717;50.240;8.406;2023-02-02T13:11:52;7.40;99.90
3408;DHT22;1717;50.240;8.406;2023-02-02T13:14:24;7.30;99.90
3408;DHT22;1717;50.240;8.406;2023-02-02T13:16:56;7.40;99.90
3408;DHT22;1717;50.240;8.406;2023-02-02T13:19:30;7.30;99.90
3408;DHT22;1717;50.240;8.406;2023-02-02T13:21:59;7.30;99.90
3408;DHT22;1717;50.240;8.406;2023-02-02T13:24:30;7.30;99.90
3408;DHT22;1717;50.240;8.406;2023-02-02T13:26:59;7.40;99.90
3408;DHT22;1717;50.240;8.406;2023-02-02T13:29:33;7.40;99.90
3408;DHT22;1717;50.240;8.406;2023-02-02T13:32:04;7.40;99.90
3408;DHT22;1717;50.240;8.406;2023-02-02T13:34:41;7.40;99.90
3408;DHT22;1717;50.240;8.406;2023-02-02T13:37:15;7.40;99.90
3408;DHT22;1717;50.240;8.406;2023-02-02T13:39:48;7.40;99.90
3408;DHT22;1717;50.240;8.406;2023-02-02T13:42:26;7.40;99.90
3408;DHT22;1717;50.240;8.406;2023-02-02T13:45:00;7.50;99.90
3408;DHT22;1717;50.240;8.406;2023-02-02T13:47:34;7.50;99.90
3408;DHT22;1717;50.240;8.406;2023-02-02T13:50:04;7.40;99.90
3408;DHT22;1717;50.240;8.406;2023-02-02T13:52:45;7.50;99.90
3408;DHT22;1717;50.240;8.406;2023-02-02T13:55:29;7.50;99.90
3408;DHT22;1717;50.240;8.406;2023-02-02T13:58:13;7.50;99.90
3408;DHT22;1717;50.240;8.406;2023-02-02T14:00:43;7.50;99.90
3408;DHT22;1717;50.240;8.406;2023-02-02T14:03:28;7.50;99.90
3408;DHT22;1717;50.240;8.406;2023-02-02T14:06:06;7.40;99.90
3408;DHT22;1717;50.240;8.406;2023-02-02T14:08:35;7.50;99.90
3408;DHT22;1717;50.240;8.406;2023-02-02T14:11:04;7.50;99.90
3408;DHT22;1717;50.240;8.406;2023-02-02T14:13:40;7.50;99.90
3408;DHT22;1717;50.240;8.406;2023-02-02T14:16:42;7.50;99.90
3408;DHT22;1717;50.240;8.406;2023-02-02T14:19:14;7.50;99.90
3408;DHT22;1717;50.240;8.406;2023-02-02T14:21:59;7.50;99.90
3408;DHT22;1717;50.240;8.406;2023-02-02T14:24:53;7.40;99.90
3408;DHT22;1717;50.240;8.406;2023-02-02T14:27:53;7.50;99.90
3408;DHT22;1717;50.240;8.406;2023-02-02T14:30:30;7.40;99.90
3408;DHT22;1717;50.240;8.406;2023-02-02T14:33:25;7.40;99.90
3408;DHT22;1717;50.240;8.406;2023-02-02T14:35:59;7.40;99.90
3408;DHT22;1717;50.240;8.406;2023-02-02T14:39:01;7.50;99.90
3408;DHT22;1717;50.240;8.406;2023-02-02T14:41:45;7.40;99.90
3408;DHT22;1717;50.240;8.406;2023-02-02T14:44:34;7.40;99.90
3408;DHT22;1717;50.240;8.406;2023-02-02T14:47:04;7.40;99.90
3408;DHT22;1717;50.240;8.406;2023-02-02T14:49:55;7.40;99.90
3408;DHT22;1717;50.240;8.406;2023-02-02T14:52:23;7.40;99.90
3408;DHT22;1717;50.240;8.406;2023-02-02T14:54:51;7.40;99.90
3408;DHT22;1717;50.240;8.406;2023-02-02T14:57:22;7.40;99.90
3408;DHT22;1717;50.240;8.406;2023-02-02T14:59:52;7.40;99.90
3408;DHT22;1717;50.240;8.406;2023-02-02T15:02:22;7.40;99.90
3408;DHT22;1717;50.240;8.406;2023-02-02T15:04:51;7.40;99.90
3408;DHT22;1717;50.240;8.406;2023-02-02T15:07:52;7.50;99.90
3408;DHT22;1717;50.240;8.406;2023-02-02T15:14:04;7.50;99.90
3408;DHT22;1717;50.240;8.406;2023-02-02T15:16:37;7.50;99.90
3408;DHT22;1717;50.240;8.406;2023-02-02T15:19:19;7.50;99.90
3408;DHT22;1717;50.240;8.406;2023-02-02T15:21:50;7.50;99.90
3408;DHT22;1717;50.240;8.406;2023-02-02T15:24:24;7.50;99.90
3408;DHT22;1717;50.240;8.406;2023-02-02T15:26:53;7.50;99.90
3408;DHT22;1717;50.240;8.406;2023-02-02T15:29:36;7.60;99.90
3408;DHT22;1717;50.240;8.406;2023-02-02T15:32:06;7.60;99.90
3408;DHT22;1717;50.240;8.406;2023-02-02T15:34:41;7.60;99.90
3408;DHT22;1717;50.240;8.406;2023-02-02T15:37:18;7.60;99.90
3408;DHT22;1717;50.240;8.406;2023-02-02T15:39:46;7.60;99.90
3408;DHT22;1717;50.240;8.406;2023-02-02T15:42:18;7.60;99.90
3408;DHT22;1717;50.240;8.406;2023-02-02T15:45:04;7.60;99.90
3408;DHT22;1717;50.240;8.406;2023-02-02T15:47:33;7.70;99.90
3408;DHT22;1717;50.240;8.406;2023-02-02T15:50:03;7.70;99.90
3408;DHT22;1717;50.240;8.406;2023-02-02T15:52:46;7.60;99.90
3408;DHT22;1717;50.240;8.406;2023-02-02T15:55:20;7.60;99.90
3408;DHT22;1717;50.240;8.406;2023-02-02T15:57:47;7.70;99.90
3408;DHT22;1717;50.240;8.406;2023-02-02T16:00:23;7.70;99.90
3408;DHT22;1717;50.240;8.406;2023-02-02T16:02:52;7.60;99.90
3408;DHT22;1717;50.240;8.406;2023-02-02T16:05:37;7.60;99.90
3408;DHT22;1717;50.240;8.406;2023-02-02T16:08:12;7.60;99.90
3408;DHT22;1717;50.240;8.406;2023-02-02T16:10:40;7.60;99.90
3408;DHT22;1717;50.240;8.406;2023-02-02T16:13:20;7.60;99.90
3408;DHT22;1717;50.240;8.406;2023-02-02T16:15:54;7.60;99.90
3408;DHT22;1717;50.240;8.406;2023-02-02T16:18:21;7.60;99.90
3408;DHT22;1717;50.240;8.406;2023-02-02T16:20:48;7.60;99.90
3408;DHT22;1717;50.240;8.406;2023-02-02T16:23:23;7.60;99.90
3408;DHT22;1717;50.240;8.406;2023-02-02T16:25:53;7.50;99.90
3408;DHT22;1717;50.240;8.406;2023-02-02T16:28:22;7.50;99.90
3408;DHT22;1717;50.240;8.406;2023-02-02T16:30:51;7.40;99.90
3408;DHT22;1717;50.240;8.406;2023-02-02T16:33:31;7.40;99.90
3408;DHT22;1717;50.240;8.406;2023-02-02T16:35:59;7.40;99.90
3408;DHT22;1717;50.240;8.406;2023-02-02T16:38:32;7.40;99.90
3408;DHT22;1717;50.240;8.406;2023-02-02T16:41:03;7.40;99.90
3408;DHT22;1717;50.240;8.406;2023-02-02T16:43:31;7.40;99.90
3408;DHT22;1717;50.240;8.406;2023-02-02T16:45:59;7.40;99.90
3408;DHT22;1717;50.240;8.406;2023-02-02T16:48:31;7.40;99.90
3408;DHT22;1717;50.240;8.406;2023-02-02T16:51:25;7.40;99.90
3408;DHT22;1717;50.240;8.406;2023-02-02T16:53:59;7.40;99.90
3408;DHT22;1717;50.240;8.406;2023-02-02T16:56:29;7.40;99.90
3408;DHT22;1717;50.240;8.406;2023-02-02T16:59:00;7.40;99.90
3408;DHT22;1717;50.240;8.406;2023-02-02T17:01:36;7.40;99.90